Time;durP1;ratioP1;P1;durP2;ratioP2;P2;SDS_P1;SDS_P2;PMS_P1;PMS_P2;Temp;Humidity;BMP_temperature;BMP_pressure;BME280_temperature;BME280_humidity;BME280_pressure;Samples;Min_cycle;Max_cycle;Signal;HPM_P1;HPM_P2
2023/06/19 00:01:42;;;;;;;18.10;17.20;;;25.90;72.70;;;;;;4912773;29;20564;-73
2023/06/19 00:04:08;;;;;;;19.87;18.67;;;25.90;73.00;;;;;;4914817;29;20540;-76
2023/06/19 00:06:35;;;;;;;18.70;17.70;;;25.90;72.80;;;;;;4914556;29;20509;-76
2023/06/19 00:09:02;;;;;;;18.43;17.37;;;25.90;73.10;;;;;;4914468;29;20462;-75
2023/06/19 00:11:28;;;;;;;18.50;17.50;;;25.90;72.60;;;;;;4914661;29;20450;-76
2023/06/19 00:13:56;;;;;;;18.53;17.53;;;25.90;72.20;;;;;;4914713;29;20465;-76
2023/06/19 00:16:25;;;;;;;19.17;17.93;;;26.00;72.20;;;;;;4928788;29;20929;-76
2023/06/19 00:18:55;;;;;;;17.67;16.83;;;26.00;71.30;;;;;;4933430;29;20454;-74
2023/06/19 00:21:23;;;;;;;19.13;18.03;;;26.10;71.80;;;;;;4933440;29;20536;-74
2023/06/19 00:23:50;;;;;;;19.17;18.17;;;26.10;71.60;;;;;;4933346;29;20461;-74
2023/06/19 00:26:16;;;;;;;19.13;17.83;;;26.10;72.20;;;;;;4933281;29;20912;-74
2023/06/19 00:28:44;;;;;;;18.93;18.03;;;26.10;72.40;;;;;;4933474;29;20453;-75
2023/06/19 00:31:13;;;;;;;20.00;18.60;;;26.10;72.60;;;;;;4933188;29;20461;-74
2023/06/19 00:33:41;;;;;;;18.83;17.93;;;26.00;73.10;;;;;;4933409;29;20496;-74
2023/06/19 00:36:11;;;;;;;20.33;18.93;;;26.10;73.40;;;;;;4933488;29;20553;-74
2023/06/19 00:38:37;;;;;;;18.10;17.30;;;25.90;73.40;;;;;;4933877;29;20540;-74
2023/06/19 00:41:05;;;;;;;18.50;17.60;;;25.90;74.10;;;;;;4936892;29;20876;-76
2023/06/19 00:43:31;;;;;;;19.03;17.90;;;25.90;74.20;;;;;;4937039;29;20539;-75
2023/06/19 00:45:59;;;;;;;20.30;19.13;;;25.80;74.80;;;;;;4936826;29;20984;-76
2023/06/19 00:48:27;;;;;;;19.03;18.10;;;25.80;75.00;;;;;;4936798;29;20913;-75
2023/06/19 00:50:57;;;;;;;18.43;17.53;;;25.70;75.30;;;;;;4936676;29;20682;-74
2023/06/19 00:53:25;;;;;;;17.00;16.30;;;25.70;75.80;;;;;;4936479;29;20495;-74
2023/06/19 00:55:52;;;;;;;19.70;18.80;;;25.60;76.50;;;;;;4937026;29;20445;-74
2023/06/19 00:58:20;;;;;;;20.20;18.87;;;25.60;76.90;;;;;;4936590;29;20453;-75
2023/06/19 01:00:46;;;;;;;18.23;17.40;;;25.50;77.20;;;;;;4936643;29;20512;-75
2023/06/19 01:03:13;;;;;;;19.73;18.63;;;25.60;77.10;;;;;;4936401;29;20449;-74
2023/06/19 01:05:40;;;;;;;19.00;18.00;;;25.50;77.40;;;;;;4936386;29;20935;-75
2023/06/19 01:08:15;;;;;;;19.57;18.37;;;25.50;77.50;;;;;;4936722;29;20449;-75
2023/06/19 01:10:48;;;;;;;19.40;18.30;;;25.60;77.80;;;;;;4898639;29;20526;-75
2023/06/19 01:13:29;;;;;;;18.80;17.80;;;25.50;78.20;;;;;;4898607;29;20551;-75
2023/06/19 01:15:57;;;;;;;19.23;18.17;;;25.40;79.10;;;;;;4898572;29;20451;-75
2023/06/19 01:18:26;;;;;;;18.33;17.40;;;25.40;79.30;;;;;;4898383;29;20456;-75
2023/06/19 01:20:53;;;;;;;20.07;18.93;;;25.40;79.40;;;;;;4898425;29;20886;-75
2023/06/19 01:23:21;;;;;;;19.23;18.13;;;25.40;79.90;;;;;;4898409;29;20818;-75
2023/06/19 01:25:48;;;;;;;19.37;18.27;;;25.40;79.50;;;;;;4898289;29;20459;-75
2023/06/19 01:28:15;;;;;;;18.80;17.80;;;25.50;76.80;;;;;;4898331;29;20455;-75
2023/06/19 01:30:43;;;;;;;19.17;18.17;;;25.50;75.80;;;;;;4898451;29;20499;-75
2023/06/19 01:33:13;;;;;;;18.30;17.30;;;25.50;75.30;;;;;;4898222;29;20459;-75
2023/06/19 01:35:44;;;;;;;16.70;15.90;;;25.60;75.30;;;;;;4898227;29;20459;-75
2023/06/19 01:38:12;;;;;;;17.57;16.67;;;25.50;75.80;;;;;;4898329;29;20456;-75
2023/06/19 01:40:41;;;;;;;16.70;15.70;;;25.30;76.50;;;;;;4898072;29;20463;-75
2023/06/19 01:43:09;;;;;;;16.40;15.37;;;25.20;77.30;;;;;;4898022;29;20942;-76
2023/06/19 01:45:36;;;;;;;17.50;16.63;;;25.10;77.80;;;;;;4898101;29;20527;-76
2023/06/19 01:48:03;;;;;;;17.30;16.50;;;25.00;78.50;;;;;;4898066;29;20494;-76
2023/06/19 01:50:29;;;;;;;16.20;15.40;;;25.00;79.30;;;;;;4897773;29;20459;-76
2023/06/19 01:52:56;;;;;;;17.27;16.40;;;24.90;79.80;;;;;;4897493;29;20527;-75
2023/06/19 01:55:23;;;;;;;17.43;16.53;;;24.90;80.60;;;;;;4898049;29;20466;-76
2023/06/19 01:57:51;;;;;;;16.80;16.00;;;24.80;80.80;;;;;;4897853;29;20904;-76
2023/06/19 02:00:19;;;;;;;17.80;16.90;;;24.70;81.20;;;;;;4897847;29;21026;-76
2023/06/19 02:02:45;;;;;;;17.50;16.60;;;24.70;82.60;;;;;;4897611;29;20971;-75
2023/06/19 02:05:13;;;;;;;17.10;16.30;;;24.60;82.70;;;;;;4897842;29;20510;-76
2023/06/19 02:07:39;;;;;;;18.10;17.10;;;24.60;83.50;;;;;;4897827;29;20594;-75
2023/06/19 02:10:07;;;;;;;16.83;16.10;;;24.50;84.70;;;;;;4912609;29;20852;-75
2023/06/19 02:12:34;;;;;;;16.93;16.13;;;24.40;85.80;;;;;;4916538;29;20488;-75
2023/06/19 02:15:02;;;;;;;17.93;17.13;;;24.40;86.70;;;;;;4916415;29;20951;-75
2023/06/19 02:17:29;;;;;;;17.00;16.20;;;24.40;87.60;;;;;;4916142;29;20450;-75
2023/06/19 02:19:55;;;;;;;16.30;15.60;;;24.40;87.90;;;;;;4916244;29;20522;-75
2023/06/19 02:22:22;;;;;;;16.93;16.13;;;24.40;88.60;;;;;;4916214;29;20470;-74
2023/06/19 02:24:49;;;;;;;16.97;16.03;;;24.30;89.50;;;;;;4916151;29;20458;-74
2023/06/19 02:27:15;;;;;;;17.70;16.53;;;24.30;90.00;;;;;;4916309;29;20502;-74
2023/06/19 02:29:42;;;;;;;17.10;16.10;;;24.30;90.40;;;;;;4916123;29;20442;-74
2023/06/19 02:32:11;;;;;;;16.97;16.17;;;24.20;90.80;;;;;;4915932;29;20462;-74
2023/06/19 02:34:37;;;;;;;16.70;15.90;;;24.20;91.20;;;;;;4916009;29;20465;-74
2023/06/19 02:37:04;;;;;;;17.40;16.60;;;24.30;91.40;;;;;;4915971;29;20513;-74
2023/06/19 02:39:31;;;;;;;16.60;15.80;;;24.30;91.50;;;;;;4916039;29;20454;-75
2023/06/19 02:41:58;;;;;;;17.30;16.50;;;24.20;91.40;;;;;;4916041;29;20458;-75
2023/06/19 02:44:24;;;;;;;16.67;15.87;;;24.10;91.90;;;;;;4915946;29;20450;-75
2023/06/19 02:46:51;;;;;;;17.30;16.33;;;24.10;92.00;;;;;;4915635;29;20490;-75
2023/06/19 02:49:19;;;;;;;16.60;15.53;;;24.10;92.30;;;;;;4915757;29;20450;-75
2023/06/19 02:51:46;;;;;;;17.20;16.40;;;24.10;92.60;;;;;;4915490;29;20478;-75
2023/06/19 02:54:13;;;;;;;17.07;16.17;;;24.00;92.80;;;;;;4915790;29;20483;-76
2023/06/19 02:56:40;;;;;;;17.00;16.20;;;23.90;93.30;;;;;;4915786;29;20454;-75
2023/06/19 02:59:06;;;;;;;17.60;16.50;;;23.90;93.60;;;;;;4915558;29;20462;-74
2023/06/19 03:01:33;;;;;;;16.67;15.90;;;23.90;93.90;;;;;;4915268;29;20790;-75
2023/06/19 03:04:00;;;;;;;16.50;15.80;;;24.00;94.10;;;;;;4915432;29;20463;-75
2023/06/19 03:06:28;;;;;;;17.43;16.53;;;24.10;94.30;;;;;;4915510;29;20846;-75
2023/06/19 03:08:55;;;;;;;17.40;16.43;;;24.00;94.20;;;;;;4915616;29;20807;-75
2023/06/19 03:11:22;;;;;;;18.17;17.20;;;23.80;94.60;;;;;;4915719;29;20454;-75
2023/06/19 03:13:50;;;;;;;17.80;17.00;;;23.60;95.20;;;;;;4915585;29;20466;-74
2023/06/19 03:16:18;;;;;;;19.27;17.97;;;23.50;95.80;;;;;;4915530;29;20454;-74
2023/06/19 03:18:45;;;;;;;18.00;16.93;;;23.50;96.20;;;;;;4916547;29;20533;-74
2023/06/19 03:21:11;;;;;;;19.20;17.77;;;23.50;96.60;;;;;;4919088;29;20818;-74
2023/06/19 03:23:40;;;;;;;19.10;18.20;;;23.40;96.80;;;;;;4918454;29;20462;-74
2023/06/19 03:26:07;;;;;;;18.00;17.00;;;23.40;97.20;;;;;;4917302;29;20466;-74
2023/06/19 03:28:34;;;;;;;19.07;17.53;;;23.40;97.40;;;;;;4916805;29;21004;-74
2023/06/19 03:31:01;;;;;;;17.00;16.00;;;23.40;97.60;;;;;;4918836;29;20458;-74
2023/06/19 03:33:27;;;;;;;17.10;16.20;;;23.40;98.00;;;;;;4917958;29;20496;-73
2023/06/19 03:35:54;;;;;;;17.20;16.40;;;23.40;98.40;;;;;;4919668;29;20501;-74
2023/06/19 03:38:21;;;;;;;16.97;16.07;;;23.30;98.90;;;;;;4920285;29;20502;-72
2023/06/19 03:40:49;;;;;;;16.93;16.00;;;23.20;99.50;;;;;;4916812;29;20498;-72
2023/06/19 03:43:15;;;;;;;17.10;16.23;;;23.10;99.90;;;;;;4914924;29;20458;-73
2023/06/19 03:45:42;;;;;;;15.90;15.20;;;23.10;99.90;;;;;;4914064;29;20463;-74
2023/06/19 03:48:09;;;;;;;15.97;15.17;;;23.10;99.90;;;;;;4914814;29;20497;-76
2023/06/19 03:50:36;;;;;;;16.03;15.33;;;23.10;99.90;;;;;;4919767;29;20450;-75
2023/06/19 03:53:03;;;;;;;20.10;18.87;;;23.00;99.90;;;;;;4916703;29;20557;-75
2023/06/19 03:55:30;;;;;;;18.03;17.23;;;22.90;99.90;;;;;;4914645;29;20454;-75
2023/06/19 03:57:58;;;;;;;18.67;17.47;;;22.70;99.90;;;;;;4914617;29;20866;-74
2023/06/19 04:00:24;;;;;;;20.50;19.40;;;22.40;99.90;;;;;;4914527;29;20454;-75
2023/06/19 04:02:51;;;;;;;19.43;18.23;;;22.10;99.90;;;;;;4914773;29;20466;-74
2023/06/19 04:05:19;;;;;;;18.10;17.27;;;22.00;99.90;;;;;;4914518;29;20462;-76
2023/06/19 04:07:46;;;;;;;17.03;16.33;;;21.80;99.90;;;;;;4914612;29;20490;-76
2023/06/19 04:10:13;;;;;;;16.80;16.00;;;21.80;99.90;;;;;;4914826;29;20972;-77
2023/06/19 04:12:40;;;;;;;16.80;16.10;;;21.80;99.90;;;;;;4914593;29;20457;-76
2023/06/19 04:15:09;;;;;;;14.73;14.10;;;21.90;99.90;;;;;;4911048;29;20461;-78
2023/06/19 04:17:35;;;;;;;16.00;15.30;;;22.10;99.90;;;;;;4904681;29;20829;-79
2023/06/19 04:20:03;;;;;;;17.10;15.63;;;22.30;99.90;;;;;;4916059;29;20865;-78
2023/06/19 04:22:29;;;;;;;15.43;14.63;;;22.50;99.90;;;;;;4916654;29;20882;-78
2023/06/19 04:24:56;;;;;;;16.23;15.17;;;22.50;99.90;;;;;;4899624;29;20462;-79
2023/06/19 04:27:23;;;;;;;16.73;15.47;;;22.60;99.90;;;;;;4899519;29;20494;-79
2023/06/19 04:29:52;;;;;;;15.93;15.23;;;22.70;99.90;;;;;;4899581;29;20515;-78
2023/06/19 04:32:20;;;;;;;14.53;13.83;;;22.70;99.90;;;;;;4914875;29;20510;-77
2023/06/19 04:34:47;;;;;;;15.97;15.27;;;22.70;99.90;;;;;;4918335;29;20466;-76
2023/06/19 04:37:18;;;;;;;18.00;16.90;;;22.90;99.90;;;;;;4918139;29;20575;-75
2023/06/19 04:39:45;;;;;;;16.70;15.77;;;23.00;99.90;;;;;;4918155;29;20493;-73
2023/06/19 04:42:19;;;;;;;16.13;14.93;;;23.10;99.90;;;;;;4917979;29;20457;-73
2023/06/19 04:44:45;;;;;;;15.70;15.00;;;23.10;99.90;;;;;;4917995;29;20941;-73
2023/06/19 04:47:12;;;;;;;16.53;15.63;;;23.20;99.90;;;;;;4917884;29;20564;-75
2023/06/19 04:49:40;;;;;;;15.23;14.53;;;23.20;99.90;;;;;;4917962;29;20453;-75
2023/06/19 04:52:08;;;;;;;15.37;14.57;;;23.10;99.90;;;;;;4917726;29;20549;-75
2023/06/19 04:54:34;;;;;;;16.07;15.37;;;23.10;99.90;;;;;;4917748;29;20933;-75
2023/06/19 04:57:01;;;;;;;16.70;16.00;;;23.20;99.90;;;;;;4917824;29;20880;-74
2023/06/19 04:59:30;;;;;;;15.83;14.93;;;23.40;99.90;;;;;;4917945;29;20537;-75
2023/06/19 05:01:57;;;;;;;16.43;15.63;;;23.50;99.90;;;;;;4917689;29;20462;-76
2023/06/19 05:04:24;;;;;;;16.13;15.27;;;23.60;99.90;;;;;;4917546;29;20960;-75
2023/06/19 05:06:52;;;;;;;16.50;15.70;;;23.70;99.90;;;;;;4917731;29;20458;-75
2023/06/19 05:09:19;;;;;;;15.33;14.57;;;24.00;99.90;;;;;;4917627;29;20458;-76
2023/06/19 05:11:46;;;;;;;15.67;14.87;;;24.30;99.90;;;;;;4919799;29;20458;-74
2023/06/19 05:14:14;;;;;;;15.63;14.93;;;24.90;99.90;;;;;;4918760;29;20495;-74
2023/06/19 05:16:40;;;;;;;16.90;15.87;;;25.70;99.10;;;;;;4917649;29;20953;-74
2023/06/19 05:19:07;;;;;;;17.30;16.30;;;26.70;96.60;;;;;;4917836;29;20454;-73
2023/06/19 05:21:34;;;;;;;16.10;15.30;;;27.00;94.80;;;;;;4917914;29;20466;-73
2023/06/19 05:24:02;;;;;;;16.70;15.80;;;26.10;96.20;;;;;;4917567;29;20458;-74
2023/06/19 05:26:29;;;;;;;17.27;16.47;;;26.10;96.50;;;;;;4917021;29;20965;-75
2023/06/19 05:28:55;;;;;;;16.40;15.60;;;26.00;97.20;;;;;;4915422;29;20537;-76
2023/06/19 05:31:22;;;;;;;15.90;15.20;;;25.90;97.10;;;;;;4917273;29;20487;-75
2023/06/19 05:33:49;;;;;;;16.30;15.60;;;25.50;98.00;;;;;;4917091;29;20880;-75
2023/06/19 05:36:15;;;;;;;15.47;14.77;;;25.30;98.90;;;;;;4916810;29;20458;-74
2023/06/19 05:38:42;;;;;;;15.30;14.60;;;25.20;99.00;;;;;;4916910;29;20506;-74
2023/06/19 05:41:10;;;;;;;16.50;15.43;;;24.70;99.90;;;;;;4916889;29;20915;-74
2023/06/19 05:43:37;;;;;;;15.93;14.97;;;24.50;99.90;;;;;;4916778;29;20497;-74
2023/06/19 05:46:04;;;;;;;15.50;14.80;;;24.40;99.90;;;;;;4917543;29;20518;-74
2023/06/19 05:48:30;;;;;;;16.03;15.23;;;24.60;99.90;;;;;;4916722;29;20490;-75
2023/06/19 05:50:57;;;;;;;16.07;14.67;;;24.70;99.90;;;;;;4916600;29;20454;-75
2023/06/19 05:53:24;;;;;;;15.73;14.80;;;24.90;99.90;;;;;;4916368;29;20572;-75
2023/06/19 05:55:50;;;;;;;16.30;15.60;;;25.30;99.80;;;;;;4916378;29;20517;-74
2023/06/19 05:58:19;;;;;;;15.70;14.93;;;25.30;99.50;;;;;;4916525;29;20450;-74
2023/06/19 06:00:46;;;;;;;15.67;14.97;;;25.70;99.40;;;;;;4916539;29;20461;-74
2023/06/19 06:03:13;;;;;;;16.00;15.20;;;26.10;97.40;;;;;;4916058;29;20545;-75
2023/06/19 06:05:40;;;;;;;16.00;15.30;;;25.90;98.00;;;;;;4916587;29;20486;-75
2023/06/19 06:08:07;;;;;;;15.47;14.77;;;25.70;98.90;;;;;;4917075;29;20508;-74
2023/06/19 06:10:34;;;;;;;16.00;15.00;;;25.90;98.90;;;;;;4916569;29;20466;-75
2023/06/19 06:13:01;;;;;;;16.03;15.13;;;26.30;97.80;;;;;;4915936;29;20466;-75
2023/06/19 06:15:29;;;;;;;16.37;15.33;;;26.50;97.00;;;;;;4915713;29;20457;-74
2023/06/19 06:17:55;;;;;;;16.83;15.83;;;26.40;97.10;;;;;;4915669;29;20794;-75
2023/06/19 06:20:22;;;;;;;16.60;15.37;;;26.60;97.00;;;;;;4915512;29;20454;-74
2023/06/19 06:22:49;;;;;;;15.70;15.00;;;26.80;96.20;;;;;;4915828;29;20455;-74
2023/06/19 06:25:15;;;;;;;16.13;15.00;;;26.50;96.90;;;;;;4915675;29;21171;-75
2023/06/19 06:27:42;;;;;;;14.80;14.20;;;26.60;97.00;;;;;;4915537;29;20490;-75
2023/06/19 06:30:11;;;;;;;15.03;14.40;;;26.30;96.80;;;;;;4915699;29;20466;-75
2023/06/19 06:32:39;;;;;;;15.43;14.70;;;25.90;97.80;;;;;;4915656;29;20975;-75
2023/06/19 06:35:07;;;;;;;16.20;15.50;;;25.80;98.50;;;;;;4915646;29;20466;-74
2023/06/19 06:37:34;;;;;;;16.93;15.50;;;25.90;98.40;;;;;;4909465;29;20490;-74
2023/06/19 06:40:00;;;;;;;16.20;15.20;;;26.40;97.30;;;;;;4915452;29;20477;-75
2023/06/19 06:42:27;;;;;;;15.10;14.40;;;26.60;96.70;;;;;;4915579;29;20455;-74
2023/06/19 06:44:54;;;;;;;15.43;14.73;;;26.50;97.00;;;;;;4915575;29;20462;-74
2023/06/19 06:47:20;;;;;;;16.60;15.80;;;26.90;96.20;;;;;;4915549;29;20459;-75
2023/06/19 06:49:48;;;;;;;16.47;15.30;;;27.60;95.20;;;;;;4915243;29;20458;-75
2023/06/19 06:52:15;;;;;;;15.83;15.07;;;28.00;94.00;;;;;;4915266;29;20997;-76
2023/06/19 06:54:42;;;;;;;17.20;16.20;;;28.70;93.20;;;;;;4915265;29;20851;-76
2023/06/19 06:57:08;;;;;;;15.77;15.07;;;29.00;92.00;;;;;;4915366;29;21040;-75
2023/06/19 06:59:35;;;;;;;14.53;13.83;;;29.10;91.30;;;;;;4915410;29;20455;-75
2023/06/19 07:02:02;;;;;;;14.40;13.80;;;29.40;90.70;;;;;;4915020;29;20451;-76
2023/06/19 07:04:28;;;;;;;14.07;13.47;;;29.70;90.40;;;;;;4914908;29;20466;-74
2023/06/19 07:06:58;;;;;;;13.80;13.30;;;30.20;86.60;;;;;;4915168;29;20517;-75
2023/06/19 07:09:24;;;;;;;16.70;16.00;;;30.10;87.30;;;;;;4915154;29;20565;-76
2023/06/19 07:11:51;;;;;;;13.33;12.87;;;30.10;87.30;;;;;;4915098;29;20514;-75
2023/06/19 07:14:18;;;;;;;14.27;13.70;;;29.80;86.70;;;;;;4915122;29;20498;-78
2023/06/19 07:16:45;;;;;;;15.20;14.60;;;29.40;87.70;;;;;;4913652;29;20903;-79
2023/06/19 07:19:12;;;;;;;14.37;13.80;;;29.00;89.20;;;;;;4914298;29;20886;-78
2023/06/19 07:21:39;;;;;;;15.00;14.40;;;28.90;90.10;;;;;;4914756;29;20466;-79
2023/06/19 07:24:08;;;;;;;14.90;14.40;;;29.00;90.40;;;;;;4914917;29;20465;-82
2023/06/19 07:26:34;;;;;;;14.57;13.97;;;28.50;89.90;;;;;;4914744;29;20467;-83
2023/06/19 07:29:01;;;;;;;14.90;14.40;;;28.50;90.10;;;;;;4914947;29;20495;-82
2023/06/19 07:31:28;;;;;;;14.33;13.83;;;28.60;89.90;;;;;;4914715;29;20454;-82
2023/06/19 07:33:55;;;;;;;13.83;13.33;;;28.80;89.30;;;;;;4914843;29;20463;-81
2023/06/19 07:36:21;;;;;;;13.57;13.07;;;28.90;88.20;;;;;;4914557;29;20514;-80
2023/06/19 07:38:48;;;;;;;14.50;13.80;;;29.00;87.10;;;;;;4914395;29;20458;-79
2023/06/19 07:41:16;;;;;;;15.00;14.40;;;29.80;84.50;;;;;;4914591;29;20458;-79
2023/06/19 07:43:43;;;;;;;14.33;13.70;;;31.10;80.70;;;;;;4914618;29;20454;-79
2023/06/19 07:46:10;;;;;;;13.97;13.47;;;32.50;75.60;;;;;;4914655;29;20564;-79
2023/06/19 07:48:37;;;;;;;16.50;15.90;;;33.80;70.00;;;;;;4914475;29;20896;-79
2023/06/19 07:51:04;;;;;;;16.80;16.20;;;34.50;66.30;;;;;;4914751;29;20528;-79
2023/06/19 07:53:30;;;;;;;15.27;14.70;;;34.40;64.10;;;;;;4914097;29;20853;-78
2023/06/19 07:55:57;;;;;;;15.93;15.23;;;34.70;63.30;;;;;;4914519;29;20509;-78
2023/06/19 07:58:25;;;;;;;15.53;15.03;;;35.10;61.70;;;;;;4913970;29;20509;-78
2023/06/19 08:00:52;;;;;;;15.40;14.90;;;35.70;59.90;;;;;;4913803;29;20890;-79
2023/06/19 08:03:18;;;;;;;14.97;14.37;;;35.80;58.60;;;;;;4914037;29;20830;-78
2023/06/19 08:05:45;;;;;;;15.20;14.50;;;35.30;59.10;;;;;;4914022;29;20458;-78
2023/06/19 08:08:13;;;;;;;15.90;15.33;;;35.20;59.40;;;;;;4913718;29;20493;-79
2023/06/19 08:10:40;;;;;;;14.93;14.43;;;35.10;59.00;;;;;;4913706;29;20545;-78
2023/06/19 08:13:07;;;;;;;15.30;14.80;;;34.90;60.00;;;;;;4914018;29;20454;-78
2023/06/19 08:15:36;;;;;;;16.07;15.47;;;35.70;58.60;;;;;;4913915;29;20451;-78
2023/06/19 08:18:02;;;;;;;15.70;15.10;;;36.70;55.90;;;;;;4913633;29;20850;-75
2023/06/19 08:20:29;;;;;;;16.40;15.80;;;36.40;55.40;;;;;;4913880;29;20533;-77
2023/06/19 08:22:56;;;;;;;15.77;14.97;;;36.20;55.50;;;;;;4913805;29;20466;-77
2023/06/19 08:25:23;;;;;;;16.40;15.70;;;35.00;57.00;;;;;;4913881;29;20549;-78
2023/06/19 08:27:50;;;;;;;15.37;14.77;;;33.70;59.10;;;;;;4913905;29;20517;-88
2023/06/19 08:30:17;;;;;;;15.03;14.53;;;32.10;62.50;;;;;;4913750;29;20486;-77
2023/06/19 08:32:47;;;;;;;14.83;14.23;;;31.40;64.10;;;;;;4913648;29;20459;-77
2023/06/19 08:35:13;;;;;;;14.60;14.07;;;31.10;66.00;;;;;;4914051;29;20458;-77
2023/06/19 08:37:40;;;;;;;13.73;13.23;;;31.40;66.00;;;;;;4913755;29;20480;-76
2023/06/19 08:40:09;;;;;;;14.50;13.90;;;31.30;67.10;;;;;;4913606;29;20473;-77
2023/06/19 08:42:36;;;;;;;14.77;14.17;;;31.30;66.80;;;;;;4913701;29;20538;-77
2023/06/19 08:45:02;;;;;;;15.03;14.43;;;30.90;68.50;;;;;;4913603;29;20454;-76
2023/06/19 08:47:31;;;;;;;14.67;14.17;;;31.00;68.60;;;;;;4913583;29;20791;-77
2023/06/19 08:49:59;;;;;;;15.40;14.80;;;31.30;68.40;;;;;;4913708;29;21055;-77
2023/06/19 08:52:26;;;;;;;15.07;14.57;;;31.70;68.30;;;;;;4913148;29;21004;-76
2023/06/19 08:54:52;;;;;;;15.83;15.23;;;32.00;66.90;;;;;;4913622;29;20458;-76
2023/06/19 08:57:19;;;;;;;15.60;15.00;;;32.70;65.60;;;;;;4913449;29;20462;-76
2023/06/19 08:59:50;;;;;;;15.00;14.43;;;34.20;61.90;;;;;;4914285;29;20826;-76
2023/06/19 09:02:16;;;;;;;15.93;15.33;;;35.50;58.60;;;;;;4919109;29;20571;-77
2023/06/19 09:04:43;;;;;;;16.40;15.80;;;36.40;56.30;;;;;;4928608;29;20477;-79
2023/06/19 09:07:13;;;;;;;16.30;15.80;;;36.70;54.30;;;;;;4928682;29;20470;-77
2023/06/19 09:09:46;;;;;;;16.57;15.77;;;36.40;54.10;;;;;;4918732;29;20588;-77
2023/06/19 09:12:15;;;;;;;16.30;15.70;;;36.80;53.90;;;;;;4919091;29;20458;-77
2023/06/19 09:14:44;;;;;;;16.60;16.00;;;37.10;52.90;;;;;;4917515;29;20458;-77
2023/06/19 09:17:12;;;;;;;15.70;15.10;;;35.50;54.50;;;;;;4917706;29;20462;-78
2023/06/19 09:19:47;;;;;;;16.07;15.30;;;35.80;54.90;;;;;;4916849;29;20462;-77
2023/06/19 09:22:19;;;;;;;16.80;16.10;;;36.10;53.80;;;;;;4916998;29;20473;-76
2023/06/19 09:24:45;;;;;;;16.43;15.83;;;36.30;52.70;;;;;;4917073;29;20961;-77
2023/06/19 09:27:14;;;;;;;16.47;15.77;;;36.60;52.70;;;;;;4917140;29;20465;-76
2023/06/19 09:29:41;;;;;;;16.40;15.50;;;37.20;52.00;;;;;;4916906;29;20588;-76
2023/06/19 09:32:18;;;;;;;18.03;16.93;;;37.80;51.00;;;;;;4916753;29;20541;-75
2023/06/19 09:34:45;;;;;;;15.80;15.20;;;37.80;51.00;;;;;;4917015;29;20461;-76
2023/06/19 09:37:12;;;;;;;16.50;15.80;;;37.30;50.40;;;;;;4917131;29;20458;-76
2023/06/19 09:39:41;;;;;;;17.83;17.03;;;38.10;49.90;;;;;;4916938;29;20454;-76
2023/06/19 09:42:09;;;;;;;17.63;17.00;;;38.90;48.90;;;;;;4916572;29;20461;-76
2023/06/19 09:44:42;;;;;;;16.60;16.00;;;39.70;47.80;;;;;;4916891;29;20529;-76
2023/06/19 09:47:18;;;;;;;16.33;15.83;;;39.80;47.70;;;;;;4916731;29;20540;-76
2023/06/19 09:49:50;;;;;;;17.17;16.57;;;40.90;45.60;;;;;;4916577;29;20667;-75
2023/06/19 09:52:19;;;;;;;17.90;17.10;;;41.30;44.10;;;;;;4916454;29;20557;-76
2023/06/19 09:54:47;;;;;;;17.80;16.70;;;41.60;43.30;;;;;;4916464;29;20493;-76
2023/06/19 09:57:14;;;;;;;17.47;16.87;;;40.30;45.00;;;;;;4916477;29;20513;-76
2023/06/19 09:59:42;;;;;;;16.43;15.63;;;38.40;46.70;;;;;;4916578;29;20549;-76
2023/06/19 10:02:10;;;;;;;16.10;15.57;;;37.00;49.20;;;;;;4916477;29;20469;-78
2023/06/19 10:04:47;;;;;;;15.40;14.80;;;36.20;51.30;;;;;;4916384;29;20459;-78
2023/06/19 10:07:18;;;;;;;15.90;15.30;;;35.90;51.30;;;;;;4916458;29;20458;-77
2023/06/19 10:09:58;;;;;;;16.97;16.37;;;36.40;51.20;;;;;;4916024;29;21118;-78
2023/06/19 10:12:35;;;;;;;16.37;15.67;;;36.50;51.50;;;;;;4915131;29;20461;-78
2023/06/19 10:15:09;;;;;;;17.50;16.67;;;36.90;51.20;;;;;;4916217;29;20465;-77
2023/06/19 10:17:36;;;;;;;18.77;17.30;;;37.30;50.10;;;;;;4916067;29;20462;-77
2023/06/19 10:20:03;;;;;;;15.23;14.73;;;37.10;50.00;;;;;;4916091;29;20454;-77
2023/06/19 10:22:31;;;;;;;16.17;15.47;;;36.80;51.00;;;;;;4915997;29;20461;-76
2023/06/19 10:24:59;;;;;;;16.87;16.17;;;36.40;51.20;;;;;;4915876;29;20458;-76
2023/06/19 10:27:26;;;;;;;17.40;16.50;;;36.20;51.80;;;;;;4915784;29;20466;-76
2023/06/19 10:29:54;;;;;;;16.33;15.83;;;36.70;50.90;;;;;;4915347;29;20493;-74
2023/06/19 10:32:21;;;;;;;16.63;16.03;;;37.30;50.20;;;;;;4915215;29;20562;-75
2023/06/19 10:34:49;;;;;;;16.70;16.00;;;37.60;49.50;;;;;;4915378;29;20533;-76
2023/06/19 10:37:16;;;;;;;18.03;17.33;;;37.40;48.60;;;;;;4919672;29;20965;-75
2023/06/19 10:39:44;;;;;;;17.70;17.10;;;37.70;49.20;;;;;;4917263;29;20457;-75
2023/06/19 10:42:12;;;;;;;17.17;16.57;;;37.40;48.70;;;;;;4917129;29;20509;-77
2023/06/19 10:44:39;;;;;;;16.67;15.97;;;37.40;50.30;;;;;;4918566;29;20454;-76
2023/06/19 10:47:07;;;;;;;17.50;16.90;;;37.80;48.60;;;;;;4917680;29;20835;-77
2023/06/19 10:49:34;;;;;;;18.33;17.53;;;38.50;47.50;;;;;;4917668;29;20609;-77
2023/06/19 10:52:01;;;;;;;19.40;18.73;;;39.60;46.00;;;;;;4916301;29;20898;-76
2023/06/19 10:54:31;;;;;;;18.90;18.20;;;39.20;46.90;;;;;;4917829;29;21072;-76
2023/06/19 10:57:02;;;;;;;18.90;18.20;;;38.50;48.50;;;;;;4915656;29;20942;-77
2023/06/19 10:59:30;;;;;;;18.70;17.90;;;37.70;49.60;;;;;;4915093;29;21065;-78
2023/06/19 11:01:57;;;;;;;17.07;16.37;;;37.10;50.80;;;;;;4914921;29;20454;-77
2023/06/19 11:04:25;;;;;;;17.47;16.47;;;36.60;51.60;;;;;;4914821;29;20462;-77
2023/06/19 11:06:51;;;;;;;17.47;16.57;;;35.40;53.00;;;;;;4914765;29;20468;-76
2023/06/19 11:09:19;;;;;;;17.20;16.40;;;34.70;54.70;;;;;;4914739;29;20908;-76
2023/06/19 11:11:47;;;;;;;16.70;16.00;;;34.70;55.80;;;;;;4914914;29;20530;-76
2023/06/19 11:14:15;;;;;;;17.40;16.70;;;34.50;55.60;;;;;;4914886;29;20860;-76
2023/06/19 11:16:45;;;;;;;17.50;16.43;;;34.50;55.40;;;;;;4914796;29;20580;-77
2023/06/19 11:19:16;;;;;;;17.47;16.77;;;34.90;55.60;;;;;;4914668;29;20576;-77
2023/06/19 11:21:47;;;;;;;17.00;16.10;;;34.90;55.90;;;;;;4914487;29;20473;-76
2023/06/19 11:24:15;;;;;;;16.93;16.03;;;34.50;56.20;;;;;;4914478;29;20466;-75
2023/06/19 11:26:48;;;;;;;17.20;16.20;;;34.50;55.90;;;;;;4914616;29;20462;-77
2023/06/19 11:29:16;;;;;;;17.53;16.83;;;36.00;54.50;;;;;;4914444;29;20501;-76
2023/06/19 11:31:44;;;;;;;18.00;17.20;;;37.20;51.90;;;;;;4914571;29;20857;-76
2023/06/19 11:34:11;;;;;;;17.33;16.73;;;37.90;50.40;;;;;;4914695;29;20525;-76
2023/06/19 11:36:38;;;;;;;18.03;17.23;;;37.80;49.90;;;;;;4914336;29;20501;-76
2023/06/19 11:39:05;;;;;;;16.73;16.13;;;38.30;49.80;;;;;;4914296;29;20549;-77
2023/06/19 11:41:33;;;;;;;16.83;16.13;;;38.10;49.80;;;;;;4914417;29;20472;-76
2023/06/19 11:44:00;;;;;;;18.30;17.50;;;38.00;49.10;;;;;;4914346;29;20461;-76
2023/06/19 11:46:30;;;;;;;17.97;17.17;;;37.90;49.60;;;;;;4914566;29;20533;-76
2023/06/19 11:49:08;;;;;;;18.03;17.33;;;37.80;50.50;;;;;;4914210;29;20540;-76
2023/06/19 11:51:34;;;;;;;17.10;16.40;;;38.20;49.20;;;;;;4914365;29;20466;-77
2023/06/19 11:54:02;;;;;;;16.97;16.37;;;37.60;50.30;;;;;;4913997;29;20478;-76
2023/06/19 11:56:29;;;;;;;17.13;16.33;;;37.70;50.30;;;;;;4914206;29;20454;-77
2023/06/19 11:58:56;;;;;;;18.30;17.40;;;36.50;51.80;;;;;;4917786;29;20516;-77
2023/06/19 12:01:22;;;;;;;17.87;17.17;;;36.70;52.50;;;;;;4933117;29;20446;-76
2023/06/19 12:03:49;;;;;;;17.70;17.00;;;36.70;52.30;;;;;;4932863;29;20453;-77
2023/06/19 12:06:18;;;;;;;19.33;18.63;;;36.50;52.70;;;;;;4932897;29;20515;-77
2023/06/19 12:08:45;;;;;;;16.70;16.10;;;37.10;52.10;;;;;;4932880;29;20544;-77
2023/06/19 12:11:13;;;;;;;16.90;16.30;;;38.40;50.20;;;;;;4932647;29;20536;-77
2023/06/19 12:14:29;;;;;;;18.30;17.60;;;38.80;49.20;;;;;;4932803;29;20751;-77
2023/06/19 12:16:55;;;;;;;20.43;19.43;;;38.70;49.60;;;;;;4932485;29;20828;-77
2023/06/19 12:19:22;;;;;;;20.10;19.30;;;38.90;48.50;;;;;;4932733;29;20453;-77
2023/06/19 12:21:50;;;;;;;17.87;17.17;;;37.80;49.30;;;;;;4932563;29;20454;-76
2023/06/19 12:24:29;;;;;;;16.20;15.60;;;37.60;49.70;;;;;;4933085;29;20465;-76
2023/06/19 12:26:56;;;;;;;18.30;17.30;;;36.90;51.50;;;;;;4932552;29;20491;-76
2023/06/19 12:29:22;;;;;;;19.03;18.30;;;37.00;50.80;;;;;;4932666;29;20458;-76
2023/06/19 12:31:49;;;;;;;17.23;16.57;;;36.50;51.00;;;;;;4932765;29;20944;-76